Time;durP1;ratioP1;P1;durP2;ratioP2;P2;SDS_P1;SDS_P2;PMS_P1;PMS_P2;Temp;Humidity;BMP_temperature;BMP_pressure;BME280_temperature;BME280_humidity;BME280_pressure;Samples;Min_cycle;Max_cycle;Signal;HPM_P1;HPM_P2
2022/09/21 00:00:44;;;;;;;0.57;0.30;;;;;;;10.46;100.00;99097.14;1766573;79;22172;-49
2022/09/21 00:03:10;;;;;;;0.20;0.20;;;;;;;10.47;100.00;99097.03;1740389;80;21096;-50
2022/09/21 00:05:37;;;;;;;0.40;0.28;;;;;;;10.48;100.00;99097.42;1772148;79;21018;-50
2022/09/21 00:08:04;;;;;;;1.10;0.30;;;;;;;10.50;100.00;99102.72;1742308;80;21076;-49
2022/09/21 00:10:33;;;;;;;0.55;0.37;;;;;;;10.52;100.00;99102.16;1742556;80;21584;-50
2022/09/21 00:13:01;;;;;;;0.68;0.50;;;;;;;10.50;100.00;99100.90;1746412;80;21502;-50
2022/09/21 00:15:29;;;;;;;0.50;0.30;;;;;;;10.48;100.00;99105.50;1786467;78;20922;-49
2022/09/21 00:17:56;;;;;;;1.00;0.30;;;;;;;10.45;100.00;99094.94;1782482;78;20872;-50
2022/09/21 00:20:24;;;;;;;0.20;0.20;;;;;;;10.43;100.00;99098.19;1798925;78;20969;-49
2022/09/21 00:22:50;;;;;;;0.30;0.30;;;;;;;10.44;100.00;99101.27;1780648;78;21324;-50
2022/09/21 00:25:17;;;;;;;0.53;0.20;;;;;;;10.44;100.00;99102.61;1790027;78;21793;-50
2022/09/21 00:27:46;;;;;;;0.33;0.25;;;;;;;10.42;100.00;99100.95;1786574;78;20919;-50
2022/09/21 00:30:12;;;;;;;1.10;0.30;;;;;;;10.38;100.00;99102.94;1790690;78;20934;-50
2022/09/21 00:32:39;;;;;;;0.30;0.20;;;;;;;10.39;100.00;99105.16;1785482;78;21356;-50
2022/09/21 00:35:08;;;;;;;0.45;0.30;;;;;;;10.39;100.00;99105.16;1787741;78;20906;-50
2022/09/21 00:37:35;;;;;;;0.30;0.25;;;;;;;10.40;100.00;99113.14;1785004;78;21096;-50
2022/09/21 00:40:02;;;;;;;0.37;0.35;;;;;;;10.40;100.00;99105.55;1791187;78;20904;-51
2022/09/21 00:42:32;;;;;;;0.62;0.30;;;;;;;10.43;100.00;99100.88;1788221;78;20864;-50
2022/09/21 00:44:58;;;;;;;0.30;0.30;;;;;;;10.45;100.00;99106.17;1783509;78;21429;-50
2022/09/21 00:47:38;;;;;;;0.28;0.20;;;;;;;10.46;100.00;99102.53;1783902;78;21089;-50
2022/09/21 00:50:08;;;;;;;0.37;0.33;;;;;;;10.44;100.00;99101.27;1787444;78;21159;-50
2022/09/21 00:52:41;;;;;;;0.60;0.30;;;;;;;10.45;100.00;99094.06;1787201;78;20904;-50
2022/09/21 00:55:27;;;;;;;0.95;0.30;;;;;;;10.46;100.00;99104.70;1786642;78;20915;-50
2022/09/21 00:57:57;;;;;;;0.90;0.40;;;;;;;10.46;100.00;99098.49;1772345;78;21398;-50
2022/09/21 01:00:23;;;;;;;1.07;0.30;;;;;;;10.46;100.00;99096.64;1782617;78;21050;-50
2022/09/21 01:02:50;;;;;;;0.68;0.40;;;;;;;10.46;100.00;99099.84;1781553;78;22202;-49
2022/09/21 01:05:16;;;;;;;0.50;0.30;;;;;;;10.45;100.00;99098.09;1784504;78;21670;-50
2022/09/21 01:07:46;;;;;;;0.50;0.30;;;;;;;10.41;100.00;99100.09;1780542;78;21053;-50
2022/09/21 01:10:15;;;;;;;1.57;0.40;;;;;;;10.39;100.00;99107.38;1784148;78;21042;-50
2022/09/21 01:13:13;;;;;;;0.50;0.37;;;;;;;10.36;100.00;99104.01;1784659;78;21075;-50
2022/09/21 01:16:16;;;;;;;0.40;0.30;;;;;;;10.33;100.00;99098.31;1744327;78;21103;-50
2022/09/21 01:19:12;;;;;;;1.27;0.40;;;;;;;10.34;100.00;99101.40;1784245;78;21463;-50
2022/09/21 01:21:57;;;;;;;0.55;0.40;;;;;;;10.33;100.00;99098.31;1773000;79;21064;-50
2022/09/21 01:27:43;;;;;;;0.60;0.40;;;;;;;10.37;100.00;99088.27;1773560;78;22388;-49
2022/09/21 01:30:18;;;;;;;0.53;0.40;;;;;;;10.37;100.00;99095.86;1750821;80;21055;-49
2022/09/21 01:33:14;;;;;;;2.52;0.68;;;;;;;10.39;100.00;99100.64;1716689;80;21169;-49
2022/09/21 01:35:47;;;;;;;1.50;0.40;;;;;;;10.40;100.00;99101.03;1745212;80;21156;-50
2022/09/21 01:38:24;;;;;;;0.50;0.40;;;;;;;10.40;100.00;99090.75;1745520;80;21449;-49
2022/09/21 01:40:57;;;;;;;0.62;0.30;;;;;;;10.40;100.00;99089.41;1733127;80;22265;-49
2022/09/21 01:43:32;;;;;;;1.82;0.30;;;;;;;10.40;100.00;99089.41;1742264;80;21578;-49
2022/09/21 01:46:00;;;;;;;2.37;0.30;;;;;;;10.40;100.00;99101.03;1741192;80;21823;-50
2022/09/21 01:48:27;;;;;;;0.65;0.35;;;;;;;10.42;100.00;99104.99;1746362;80;21099;-49
2022/09/21 01:50:55;;;;;;;0.45;0.37;;;;;;;10.43;100.00;99106.73;1718672;80;21006;-50
2022/09/21 01:53:35;;;;;;;0.37;0.37;;;;;;;10.44;100.00;99099.05;1745088;80;21099;-47
2022/09/21 01:56:35;;;;;;;0.72;0.40;;;;;;;10.47;100.00;99098.38;1745548;80;21073;-51
2022/09/21 01:59:41;;;;;;;0.40;0.40;;;;;;;10.49;100.00;99097.81;1721436;81;22025;-51
2022/09/21 02:02:18;;;;;;;0.40;0.30;;;;;;;10.54;100.00;99098.91;1718022;81;21117;-49
2022/09/21 02:04:45;;;;;;;1.40;0.30;;;;;;;10.56;100.00;99097.84;1716790;81;21105;-51
2022/09/21 02:07:11;;;;;;;0.40;0.30;;;;;;;10.57;100.00;99099.58;1718462;81;21100;-51
2022/09/21 02:09:39;;;;;;;0.45;0.20;;;;;;;10.59;100.00;99099.50;1720157;81;21094;-51
2022/09/21 02:12:05;;;;;;;1.52;0.20;;;;;;;10.61;100.00;99101.15;1714039;81;21157;-50
2022/09/21 02:14:33;;;;;;;3.02;0.40;;;;;;;10.61;100.00;99101.15;1716698;81;21082;-50
2022/09/21 02:17:11;;;;;;;0.72;0.20;;;;;;;10.57;100.00;99100.92;1684679;81;21106;-50
2022/09/21 02:20:21;;;;;;;0.50;0.30;;;;;;;10.54;100.00;99108.33;1719422;81;21118;-50
2022/09/21 02:23:15;;;;;;;0.23;0.20;;;;;;;10.53;100.00;99103.42;1693600;81;21133;-51
2022/09/21 02:25:53;;;;;;;0.30;0.20;;;;;;;10.54;100.00;99106.98;1712372;81;21116;-49
2022/09/21 02:28:28;;;;;;;1.32;0.30;;;;;;;10.52;100.00;99105.72;1692795;82;21057;-51
2022/09/21 02:31:23;;;;;;;0.40;0.30;;;;;;;10.50;100.00;99105.41;1692753;82;21050;-51
2022/09/21 02:33:56;;;;;;;1.15;0.40;;;;;;;10.51;100.00;99108.50;1691720;82;21560;-51
2022/09/21 02:36:42;;;;;;;0.28;0.23;;;;;;;10.51;100.00;99108.02;1691986;82;21057;-50
2022/09/21 02:39:34;;;;;;;0.37;0.30;;;;;;;10.54;100.00;99112.36;1686935;82;21225;-50
2022/09/21 02:42:09;;;;;;;0.60;0.30;;;;;;;10.54;100.00;99109.20;1691006;82;21069;-51
2022/09/21 02:44:44;;;;;;;0.33;0.30;;;;;;;10.53;100.00;99110.16;1693050;82;21001;-49
2022/09/21 02:47:18;;;;;;;0.30;0.28;;;;;;;10.53;100.00;99113.31;1691891;82;22212;-51
2022/09/21 02:49:52;;;;;;;1.98;0.30;;;;;;;10.53;100.00;99110.16;1690247;82;21634;-52
2022/09/21 02:52:18;;;;;;;0.40;0.40;;;;;;;10.55;100.00;99116.28;1689985;82;21128;-51
2022/09/21 02:54:48;;;;;;;0.45;0.40;;;;;;;10.54;100.00;99116.41;1694752;82;21460;-51
2022/09/21 02:57:16;;;;;;;0.47;0.45;;;;;;;10.55;100.00;99116.77;1692039;82;21085;-51
2022/09/21 02:59:43;;;;;;;0.65;0.30;;;;;;;10.54;100.00;99121.78;1691328;82;21161;-51
2022/09/21 03:02:11;;;;;;;0.40;0.40;;;;;;;10.46;100.00;99118.16;1689131;82;21535;-51
2022/09/21 03:04:40;;;;;;;0.40;0.40;;;;;;;10.44;100.00;99126.83;1690159;82;21149;-51
2022/09/21 03:07:07;;;;;;;0.30;0.30;;;;;;;10.45;100.00;99125.00;1691808;82;21548;-51
2022/09/21 03:09:34;;;;;;;1.40;0.30;;;;;;;10.47;100.00;99122.59;1689455;82;21476;-51
2022/09/21 03:12:01;;;;;;;0.50;0.40;;;;;;;10.48;100.00;99126.16;1688879;82;21109;-51
2022/09/21 03:14:27;;;;;;;0.42;0.40;;;;;;;10.49;100.00;99130.11;1693741;82;21497;-50
2022/09/21 03:16:54;;;;;;;4.58;0.40;;;;;;;10.49;100.00;99130.11;1691238;82;21118;-51
2022/09/21 03:19:20;;;;;;;0.40;0.30;;;;;;;10.50;100.00;99135.02;1691392;82;21002;-51
2022/09/21 03:21:47;;;;;;;0.45;0.40;;;;;;;10.51;100.00;99133.58;1690242;82;21050;-50
2022/09/21 03:24:44;;;;;;;1.75;0.40;;;;;;;10.51;100.00;99138.97;1692263;82;21153;-53
2022/09/21 03:26:42;;;;;;;0.37;0.30;;;;;;;10.50;100.00;99141.27;1684136;82;22231;-49
2022/09/21 03:29:08;;;;;;;0.50;0.30;;;;;;;10.52;100.00;99139.36;1681029;83;21109;-50
2022/09/21 03:31:36;;;;;;;3.02;0.30;;;;;;;10.55;100.00;99132.43;1686101;83;21076;-52
2022/09/21 03:34:02;;;;;;;0.20;0.20;;;;;;;10.58;100.00;99136.30;1683998;83;21061;-51
2022/09/21 03:36:29;;;;;;;0.42;0.20;;;;;;;10.61;100.00;99136.14;1683970;83;21723;-51
2022/09/21 03:38:55;;;;;;;0.82;0.23;;;;;;;10.64;100.00;99136.41;1681379;83;21068;-51
2022/09/21 03:41:22;;;;;;;0.40;0.30;;;;;;;10.66;100.00;99144.41;1680660;83;21138;-49
2022/09/21 03:43:48;;;;;;;0.82;0.30;;;;;;;10.67;100.00;99134.03;1683990;83;21102;-51
2022/09/21 03:46:15;;;;;;;0.60;0.40;;;;;;;10.68;100.00;99139.33;1682615;83;21115;-50
2022/09/21 03:48:46;;;;;;;0.30;0.30;;;;;;;10.66;100.00;99138.55;1683518;83;21521;-51
2022/09/21 03:51:11;;;;;;;0.30;0.30;;;;;;;10.66;100.00;99138.55;1682277;83;20901;-50
2022/09/21 03:53:38;;;;;;;0.25;0.20;;;;;;;10.65;100.00;99149.39;1683001;83;21011;-50
2022/09/21 03:56:04;;;;;;;1.45;0.30;;;;;;;10.64;100.00;99145.84;1679040;83;21102;-49
2022/09/21 03:58:31;;;;;;;0.30;0.30;;;;;;;10.61;100.00;99138.83;1681081;83;21469;-51
2022/09/21 04:01:02;;;;;;;0.30;0.30;;;;;;;10.59;100.00;99147.46;1683096;83;21078;-50
2022/09/21 04:03:29;;;;;;;0.40;0.30;;;;;;;10.55;100.00;99144.54;1677977;83;21115;-51
2022/09/21 04:05:56;;;;;;;1.77;0.25;;;;;;;10.51;100.00;99152.89;1679697;83;21145;-52
2022/09/21 04:08:22;;;;;;;1.32;0.23;;;;;;;10.52;100.00;99154.16;1683585;83;21534;-52
2022/09/21 04:10:49;;;;;;;0.40;0.30;;;;;;;10.52;100.00;99151.94;1680531;83;21121;-52
2022/09/21 04:13:15;;;;;;;0.40;0.30;;;;;;;10.50;100.00;99149.34;1680816;83;21102;-51
2022/09/21 04:15:42;;;;;;;0.30;0.30;;;;;;;10.53;100.00;99155.03;1687141;83;21119;-51
2022/09/21 04:18:08;;;;;;;1.25;0.20;;;;;;;10.51;100.00;99156.45;1681033;83;21408;-51
2022/09/21 04:20:35;;;;;;;0.30;0.20;;;;;;;10.51;100.00;99156.93;1682506;83;21073;-52
2022/09/21 04:23:02;;;;;;;0.20;0.20;;;;;;;10.50;100.00;99162.79;1682795;83;21147;-51
2022/09/21 04:25:28;;;;;;;0.20;0.20;;;;;;;10.51;100.00;99161.84;1677361;83;21411;-51
2022/09/21 04:27:55;;;;;;;0.25;0.25;;;;;;;10.52;100.00;99158.20;1699451;82;21078;-50
2022/09/21 04:30:22;;;;;;;0.20;0.20;;;;;;;10.56;100.00;99166.47;1703072;82;21164;-51
2022/09/21 04:32:48;;;;;;;0.20;0.20;;;;;;;10.58;100.00;99165.04;1706043;82;21249;-51
2022/09/21 04:35:15;;;;;;;0.30;0.20;;;;;;;10.59;100.00;99166.30;1706751;82;21178;-52
2022/09/21 04:37:41;;;;;;;0.10;0.10;;;;;;;10.61;100.00;99169.78;1703531;82;22429;-51
2022/09/21 04:40:08;;;;;;;1.80;0.20;;;;;;;10.61;100.00;99172.47;1703050;82;21113;-50
2022/09/21 04:42:35;;;;;;;0.15;0.15;;;;;;;10.60;100.00;99167.17;1703594;82;21492;-50
2022/09/21 04:45:04;;;;;;;0.30;0.30;;;;;;;10.58;100.00;99171.29;1701376;82;21074;-50
2022/09/21 04:47:31;;;;;;;1.20;0.17;;;;;;;10.60;100.00;99175.24;1699052;82;21089;-52
2022/09/21 04:49:58;;;;;;;0.35;0.10;;;;;;;10.61;100.00;99180.55;1702794;82;21073;-52
2022/09/21 04:52:25;;;;;;;0.37;0.20;;;;;;;10.61;100.00;99176.51;1702178;82;21065;-50
2022/09/21 04:54:52;;;;;;;0.40;0.30;;;;;;;10.63;100.00;99179.59;1704257;82;21933;-50
2022/09/21 04:57:18;;;;;;;0.13;0.10;;;;;;;10.64;100.00;99180.82;1701118;82;21521;-51
2022/09/21 04:59:44;;;;;;;0.33;0.20;;;;;;;10.62;100.00;99177.37;1701367;82;21045;-52
2022/09/21 05:02:11;;;;;;;0.30;0.30;;;;;;;10.58;100.00;99184.74;1706124;82;21058;-52
2022/09/21 05:04:38;;;;;;;0.85;0.20;;;;;;;10.56;100.00;99175.88;1704155;82;21100;-52
2022/09/21 05:07:05;;;;;;;1.98;0.30;;;;;;;10.53;100.00;99176.08;1704694;82;21659;-51
2022/09/21 05:12:16;;;;;;;;;;;;;;;10.56;100.00;99178.58;1705576;82;21136;-52
2022/09/21 05:14:43;;;;;;;3.42;0.28;;;;;;;10.56;100.00;99175.02;1704186;82;20768;-52
2022/09/21 05:17:11;;;;;;;0.37;0.30;;;;;;;10.54;100.00;99177.81;1706482;82;21581;-51
2022/09/21 05:19:37;;;;;;;0.65;0.20;;;;;;;10.54;100.00;99180.52;1704086;82;21169;-51
2022/09/21 05:22:04;;;;;;;0.42;0.30;;;;;;;10.52;100.00;99182.89;1700306;82;21102;-50
2022/09/21 05:24:31;;;;;;;0.65;0.30;;;;;;;10.49;100.00;99181.23;1705621;82;21098;-50
2022/09/21 05:26:57;;;;;;;0.30;0.25;;;;;;;10.52;100.00;99182.41;1703776;82;21070;-52
2022/09/21 05:29:25;;;;;;;1.22;0.20;;;;;;;10.54;100.00;99182.33;1703603;82;21383;-52
2022/09/21 05:32:03;;;;;;;0.57;0.30;;;;;;;10.54;100.00;99185.89;1708347;82;21185;-52
2022/09/21 05:35:04;;;;;;;0.30;0.23;;;;;;;10.56;100.00;99183.09;1702170;82;21512;-53
2022/09/21 05:37:51;;;;;;;0.30;0.20;;;;;;;10.57;100.00;99188.39;1704756;82;21043;-50
2022/09/21 05:40:19;;;;;;;0.95;0.30;;;;;;;10.59;100.00;99182.45;1703701;82;21109;-53
2022/09/21 05:42:45;;;;;;;0.35;0.23;;;;;;;10.61;100.00;99183.23;1704721;82;21608;-51
2022/09/21 05:45:16;;;;;;;7.22;0.25;;;;;;;10.63;100.00;99196.10;1706031;82;23018;-51
2022/09/21 05:48:04;;;;;;;0.40;0.20;;;;;;;10.64;100.00;99192.94;1704793;82;21101;-51
2022/09/21 05:50:49;;;;;;;1.15;0.53;;;;;;;10.62;100.00;99189.48;1701223;82;21111;-52
2022/09/21 05:53:30;;;;;;;2.20;0.30;;;;;;;10.58;100.00;99198.20;1704569;82;21077;-51
2022/09/21 05:55:59;;;;;;;0.62;0.30;;;;;;;10.56;100.00;99200.11;1704862;82;21324;-52
2022/09/21 05:58:43;;;;;;;0.53;0.30;;;;;;;10.54;100.00;99199.34;1704841;82;22184;-51
2022/09/21 06:01:40;;;;;;;0.35;0.33;;;;;;;10.55;100.00;99203.75;1703811;82;21077;-51
2022/09/21 06:04:11;;;;;;;0.40;0.30;;;;;;;10.54;100.00;99206.55;1702757;82;21053;-53
2022/09/21 06:06:38;;;;;;;0.65;0.30;;;;;;;10.53;100.00;99207.50;1705484;82;21078;-52
2022/09/21 06:09:04;;;;;;;0.30;0.23;;;;;;;10.55;100.00;99215.86;1704747;82;21070;-52
2022/09/21 06:11:32;;;;;;;0.30;0.20;;;;;;;10.57;100.00;99217.98;1701413;82;21872;-52
2022/09/21 06:14:01;;;;;;;0.30;0.20;;;;;;;10.58;100.00;99216.17;1707509;82;21355;-51
2022/09/21 06:16:39;;;;;;;0.20;0.20;;;;;;;10.58;100.00;99214.83;1707102;82;20901;-52
2022/09/21 06:19:06;;;;;;;0.68;0.20;;;;;;;10.57;100.00;99215.77;1707738;82;20904;-51
2022/09/21 06:21:32;;;;;;;0.40;0.30;;;;;;;10.55;100.00;99217.20;1709844;82;21548;-51
2022/09/21 06:23:59;;;;;;;0.20;0.20;;;;;;;10.57;100.00;99217.13;1709336;82;21105;-51
2022/09/21 06:26:26;;;;;;;0.17;0.10;;;;;;;10.55;100.00;99215.86;1706191;82;21525;-52
2022/09/21 06:28:53;;;;;;;1.07;0.20;;;;;;;10.55;100.00;99219.89;1713865;81;21469;-51
2022/09/21 06:31:19;;;;;;;0.30;0.30;;;;;;;10.53;100.00;99219.14;1717473;81;21065;-52
2022/09/21 06:33:46;;;;;;;3.22;0.30;;;;;;;10.53;100.00;99223.17;1718970;81;20978;-51
2022/09/21 06:36:12;;;;;;;0.50;0.20;;;;;;;10.54;100.00;99218.19;1716801;81;21105;-51
2022/09/21 06:38:39;;;;;;;0.20;0.20;;;;;;;10.56;100.00;99216.25;1672520;83;20991;-52
2022/09/21 06:41:07;;;;;;;0.50;0.20;;;;;;;10.63;100.00;99220.84;1711667;81;21128;-51
2022/09/21 06:43:33;;;;;;;0.30;0.20;;;;;;;10.68;100.00;99213.83;1711386;81;21062;-53
2022/09/21 06:46:00;;;;;;;0.30;0.20;;;;;;;10.76;100.00;99217.81;1711838;81;21024;-51
2022/09/21 06:48:28;;;;;;;0.40;0.20;;;;;;;10.85;100.00;99224.50;1713413;81;21111;-53
2022/09/21 06:51:01;;;;;;;1.47;0.20;;;;;;;10.93;100.00;99216.84;1714274;81;21042;-52
2022/09/21 06:53:29;;;;;;;0.53;0.30;;;;;;;10.98;100.00;99223.69;1713028;81;21053;-51
2022/09/21 06:56:07;;;;;;;1.85;0.30;;;;;;;10.98;100.00;99223.69;1713078;81;21077;-51
2022/09/21 06:58:33;;;;;;;0.30;0.20;;;;;;;11.02;100.00;99227.08;1711480;81;21311;-49
2022/09/21 07:01:08;;;;;;;0.37;0.30;;;;;;;11.02;100.00;99231.13;1710862;81;21492;-51
2022/09/21 07:03:35;;;;;;;0.50;0.30;;;;;;;11.02;100.00;99232.95;1712551;81;21674;-52
2022/09/21 07:06:03;;;;;;;1.47;0.40;;;;;;;11.03;100.00;99241.41;1712747;81;21090;-49
2022/09/21 07:08:30;;;;;;;1.55;0.23;;;;;;;11.05;100.00;99240.86;1713160;81;21054;-51
2022/09/21 07:10:58;;;;;;;0.35;0.20;;;;;;;11.06;100.00;99238.56;1714276;81;21616;-50
2022/09/21 07:13:26;;;;;;;0.30;0.30;;;;;;;11.04;100.00;99245.85;1712319;81;21502;-51
2022/09/21 07:15:53;;;;;;;3.47;0.30;;;;;;;10.93;100.00;99245.12;1714845;81;20965;-51
2022/09/21 07:18:20;;;;;;;1.17;0.30;;;;;;;10.93;100.00;99245.12;1715086;81;21038;-52
2022/09/21 07:20:51;;;;;;;0.33;0.30;;;;;;;10.90;100.00;99245.28;1713205;81;21156;-50
2022/09/21 07:23:17;;;;;;;0.30;0.30;;;;;;;10.86;100.00;99247.78;1711289;81;21082;-52
2022/09/21 07:25:45;;;;;;;0.33;0.20;;;;;;;10.79;100.00;99256.69;1711742;81;21717;-51
2022/09/21 07:28:12;;;;;;;0.50;0.30;;;;;;;10.79;100.00;99256.69;1711215;81;21070;-51
2022/09/21 07:30:40;;;;;;;0.35;0.20;;;;;;;10.80;100.00;99259.74;1706845;82;21054;-52
2022/09/21 07:33:06;;;;;;;0.45;0.30;;;;;;;10.80;100.00;99256.21;1705255;82;21072;-52
2022/09/21 07:35:34;;;;;;;0.20;0.17;;;;;;;10.82;100.00;99266.39;1706469;82;21106;-53
2022/09/21 07:38:03;;;;;;;0.30;0.20;;;;;;;10.82;100.00;99266.39;1700597;82;21627;-52
2022/09/21 07:40:31;;;;;;;0.10;0.10;;;;;;;10.86;100.00;99267.97;1704487;82;21053;-49
2022/09/21 07:42:59;;;;;;;0.28;0.20;;;;;;;10.87;100.00;99273.27;1705677;82;21054;-52
2022/09/21 07:45:25;;;;;;;0.28;0.20;;;;;;;10.90;100.00;99273.55;1705382;82;21411;-52
2022/09/21 07:47:56;;;;;;;1.85;0.20;;;;;;;10.90;100.00;99273.55;1709430;82;21054;-52
2022/09/21 07:50:21;;;;;;;0.13;0.13;;;;;;;10.90;100.00;99277.12;1704095;82;21174;-50
2022/09/21 07:52:48;;;;;;;0.20;0.20;;;;;;;10.85;100.00;99275.17;1707359;82;21102;-50
2022/09/21 07:55:14;;;;;;;0.25;0.20;;;;;;;10.83;100.00;99275.73;1704173;82;21125;-50
2022/09/21 08:00:28;;;;;;;;;;;;;;;10.82;100.00;99277.16;1708946;82;21098;-51
2022/09/21 08:02:54;;;;;;;0.28;0.10;;;;;;;10.84;100.00;99286.02;1705427;82;21178;-51
2022/09/21 08:05:20;;;;;;;0.20;0.20;;;;;;;10.84;100.00;99290.06;1704580;82;21101;-50
2022/09/21 08:07:47;;;;;;;0.20;0.20;;;;;;;10.87;100.00;99285.86;1705289;82;21227;-50
2022/09/21 08:10:13;;;;;;;1.10;0.30;;;;;;;10.93;100.00;99282.81;1705618;82;21094;-51
2022/09/21 08:12:40;;;;;;;0.37;0.20;;;;;;;10.93;100.00;99282.81;1701709;82;21159;-50
2022/09/21 08:15:10;;;;;;;0.30;0.20;;;;;;;10.99;100.00;99286.02;1699037;82;21130;-52
2022/09/21 08:17:37;;;;;;;0.30;0.20;;;;;;;11.06;100.00;99287.88;1704397;82;21031;-50
2022/09/21 08:20:05;;;;;;;1.32;0.25;;;;;;;11.06;100.00;99287.88;1706080;82;21589;-51
2022/09/21 08:22:32;;;;;;;0.80;0.10;;;;;;;11.14;100.00;99288.81;1704906;82;21063;-50
2022/09/21 08:24:58;;;;;;;0.30;0.20;;;;;;;11.14;100.00;99288.81;1704275;82;21049;-51
2022/09/21 08:27:25;;;;;;;0.55;0.30;;;;;;;11.16;100.00;99286.87;1701854;82;21136;-51
2022/09/21 08:29:51;;;;;;;0.45;0.40;;;;;;;11.16;100.00;99286.87;1706621;82;21118;-49
2022/09/21 08:32:19;;;;;;;1.05;0.30;;;;;;;11.16;100.00;99293.13;1704526;82;21047;-52
2022/09/21 08:34:45;;;;;;;0.30;0.20;;;;;;;11.14;100.00;99295.55;1706147;82;21077;-51
2022/09/21 08:37:11;;;;;;;0.30;0.30;;;;;;;11.14;100.00;99291.02;1703935;82;21138;-51
2022/09/21 08:39:38;;;;;;;0.75;0.20;;;;;;;11.17;100.00;99291.30;1706590;82;21773;-53
2022/09/21 08:42:15;;;;;;;0.40;0.20;;;;;;;11.17;100.00;99291.30;1705965;82;21152;-50
2022/09/21 08:45:04;;;;;;;1.15;0.35;;;;;;;11.18;100.00;99293.05;1700694;82;21106;-50
2022/09/21 08:47:45;;;;;;;0.30;0.30;;;;;;;11.20;100.00;99288.45;1703521;82;21104;-49
2022/09/21 08:50:23;;;;;;;0.40;0.30;;;;;;;11.21;100.00;99291.53;1685571;82;21051;-50
2022/09/21 08:52:50;;;;;;;0.30;0.30;;;;;;;11.20;100.00;99289.31;1703408;82;21219;-51
2022/09/21 08:55:18;;;;;;;0.85;0.20;;;;;;;11.19;100.00;99292.96;1707219;82;21124;-50
2022/09/21 08:57:45;;;;;;;0.75;0.30;;;;;;;11.21;100.00;99296.44;1704487;82;21106;-51
2022/09/21 09:00:17;;;;;;;0.37;0.30;;;;;;;11.22;100.00;99302.22;1705659;82;22291;-51
2022/09/21 09:03:23;;;;;;;0.40;0.30;;;;;;;11.24;100.00;99298.94;1704628;82;21508;-51
2022/09/21 09:06:01;;;;;;;0.40;0.30;;;;;;;11.26;100.00;99306.46;1705901;82;22543;-52
2022/09/21 09:08:56;;;;;;;0.37;0.37;;;;;;;11.35;100.00;99305.92;1706921;82;20921;-52
2022/09/21 09:11:34;;;;;;;0.30;0.30;;;;;;;11.49;100.00;99300.19;1709471;82;21451;-51
2022/09/21 09:14:06;;;;;;;0.60;0.40;;;;;;;11.49;100.00;99300.19;1693530;82;21143;-50
2022/09/21 09:16:54;;;;;;;0.60;0.40;;;;;;;11.58;100.00;99300.52;1705333;82;20968;-51
2022/09/21 09:19:27;;;;;;;0.60;0.40;;;;;;;11.66;100.00;99298.23;1708601;82;21205;-51
2022/09/21 09:21:55;;;;;;;0.80;0.28;;;;;;;11.72;100.00;99292.98;1702988;82;21121;-50
2022/09/21 09:24:41;;;;;;;0.30;0.30;;;;;;;11.77;100.00;99297.63;1706613;82;21016;-52
2022/09/21 09:27:31;;;;;;;0.30;0.30;;;;;;;11.82;100.00;99298.24;1703058;82;21354;-50
2022/09/21 09:30:20;;;;;;;1.15;0.30;;;;;;;11.90;100.00;99295.08;1707070;82;21565;-50
2022/09/21 09:33:07;;;;;;;4.87;0.30;;;;;;;12.00;100.00;99294.88;1704638;82;21123;-51
2022/09/21 09:35:47;;;;;;;0.42;0.30;;;;;;;12.12;100.00;99296.83;1683990;82;20969;-51
2022/09/21 09:38:28;;;;;;;2.30;0.30;;;;;;;12.19;100.00;99293.27;1706294;82;21709;-52
2022/09/21 09:41:09;;;;;;;0.85;0.30;;;;;;;12.23;100.00;99299.75;1690927;82;20927;-50
2022/09/21 09:44:20;;;;;;;0.40;0.25;;;;;;;12.19;100.00;99294.62;1705890;82;20959;-50
2022/09/21 09:47:10;;;;;;;0.50;0.30;;;;;;;12.17;100.00;99293.84;1704617;82;21219;-49
2022/09/21 09:49:59;;;;;;;0.40;0.30;;;;;;;12.19;100.00;99291.92;1706626;82;21045;-50
2022/09/21 09:52:26;;;;;;;1.27;0.30;;;;;;;12.21;100.00;99299.45;1703883;82;21047;-52
2022/09/21 09:54:53;;;;;;;0.30;0.28;;;;;;;12.22;100.00;99304.75;1703301;82;21552;-51
2022/09/21 09:57:28;;;;;;;0.40;0.30;;;;;;;12.24;100.00;99305.53;1701945;82;21098;-50
2022/09/21 10:00:01;;;;;;;0.20;0.20;;;;;;;12.23;100.00;99305.14;1701669;82;21090;-52
2022/09/21 10:02:28;;;;;;;0.40;0.30;;;;;;;12.22;100.00;99309.28;1683608;82;21157;-51
2022/09/21 10:05:07;;;;;;;2.83;0.30;;;;;;;12.16;100.00;99310.54;1703846;82;21154;-50
2022/09/21 10:07:42;;;;;;;0.42;0.30;;;;;;;12.10;100.00;99312.23;1706053;82;21188;-51
2022/09/21 10:10:23;;;;;;;0.35;0.33;;;;;;;12.07;100.00;99315.14;1701002;82;21092;-50
2022/09/21 10:12:51;;;;;;;2.27;0.30;;;;;;;12.03;100.00;99320.33;1701525;82;21503;-51
2022/09/21 10:15:18;;;;;;;1.62;0.30;;;;;;;12.02;100.00;99315.89;1702543;82;21124;-50
2022/09/21 10:17:45;;;;;;;0.60;0.30;;;;;;;12.01;100.00;99318.19;1704070;82;21099;-51
2022/09/21 10:20:17;;;;;;;0.40;0.30;;;;;;;12.00;100.00;99321.85;1704378;82;21046;-50
2022/09/21 10:22:50;;;;;;;1.30;0.40;;;;;;;11.99;100.00;99314.75;1701407;82;21048;-50
2022/09/21 10:25:17;;;;;;;0.40;0.33;;;;;;;11.98;100.00;99318.41;1705415;82;21209;-51
2022/09/21 10:27:47;;;;;;;0.40;0.30;;;;;;;11.98;100.00;99312.53;1702945;82;21116;-50
2022/09/21 10:30:37;;;;;;;0.60;0.40;;;;;;;11.97;100.00;99318.88;1690749;81;21003;-49
2022/09/21 10:33:19;;;;;;;0.35;0.30;;;;;;;11.98;100.00;99321.97;1718342;81;21108;-50
2022/09/21 10:35:50;;;;;;;0.30;0.30;;;;;;;12.01;100.00;99320.41;1717735;81;21121;-50
2022/09/21 10:38:26;;;;;;;0.37;0.30;;;;;;;12.03;100.00;99318.50;1716281;81;21729;-50
2022/09/21 10:40:53;;;;;;;0.45;0.30;;;;;;;12.03;100.00;99322.55;1717177;81;21053;-50
2022/09/21 10:43:25;;;;;;;2.22;0.30;;;;;;;12.02;100.00;99323.50;1720350;81;21486;-51
2022/09/21 10:45:54;;;;;;;2.42;0.30;;;;;;;12.00;100.00;99323.20;1720241;81;21409;-51
2022/09/21 10:48:22;;;;;;;0.70;0.40;;;;;;;11.98;100.00;99330.06;1717723;81;21057;-51
2022/09/21 10:50:49;;;;;;;3.47;0.55;;;;;;;11.95;100.00;99333.41;1717794;81;22550;-49
2022/09/21 10:53:24;;;;;;;0.40;0.30;;;;;;;11.92;100.00;99330.89;1717160;81;21034;-51
2022/09/21 10:56:08;;;;;;;0.53;0.33;;;;;;;11.91;100.00;99326.48;1722200;81;21109;-51
2022/09/21 10:58:36;;;;;;;1.05;0.28;;;;;;;11.90;100.00;99329.66;1714319;81;21101;-56
2022/09/21 11:01:21;;;;;;;1.17;0.30;;;;;;;11.92;100.00;99332.23;1717489;81;21576;-51
2022/09/21 11:04:01;;;;;;;0.37;0.33;;;;;;;11.93;100.00;99329.93;1716742;81;21605;-51
2022/09/21 11:06:36;;;;;;;0.72;0.30;;;;;;;11.95;100.00;99327.54;1714697;81;21105;-51
2022/09/21 11:09:12;;;;;;;0.50;0.30;;;;;;;12.00;100.00;99324.55;1708832;81;21026;-51
2022/09/21 11:12:03;;;;;;;0.40;0.30;;;;;;;12.06;100.00;99325.06;1713138;81;21098;-51
2022/09/21 11:15:02;;;;;;;0.70;0.30;;;;;;;12.12;100.00;99323.33;1722080;81;21105;-54
2022/09/21 11:17:44;;;;;;;5.55;0.50;;;;;;;12.17;100.00;99326.21;1718879;81;21147;-51
2022/09/21 11:20:51;;;;;;;0.55;0.30;;;;;;;12.20;100.00;99313.89;1671184;81;21104;-51
2022/09/21 11:23:48;;;;;;;3.30;0.68;;;;;;;12.23;100.00;99321.33;1716236;81;21157;-51
2022/09/21 11:26:43;;;;;;;3.22;0.20;;;;;;;12.26;100.00;99317.08;1716082;81;20946;-52
2022/09/21 11:29:18;;;;;;;0.45;0.35;;;;;;;12.30;100.00;99311.89;1713169;81;21115;-50
2022/09/21 11:31:54;;;;;;;0.85;0.30;;;;;;;12.35;100.00;99315.16;1703027;82;21315;-51
2022/09/21 11:35:04;;;;;;;1.07;0.30;;;;;;;12.37;100.00;99310.54;1697444;82;21006;-52
2022/09/21 11:38:00;;;;;;;0.30;0.25;;;;;;;12.37;100.00;99311.89;1700871;82;21090;-51
2022/09/21 11:40:53;;;;;;;0.40;0.20;;;;;;;12.35;100.00;99328.66;1702996;82;21332;-51
2022/09/21 11:43:30;;;;;;;2.33;0.20;;;;;;;12.30;100.00;99334.83;1625071;82;21749;-50
2022/09/21 11:46:26;;;;;;;0.28;0.20;;;;;;;12.21;100.00;99337.22;1706103;82;21118;-50
2022/09/21 11:49:34;;;;;;;0.20;0.20;;;;;;;12.11;100.00;99328.34;1703630;82;21516;-51
2022/09/21 11:52:25;;;;;;;0.45;0.20;;;;;;;12.08;100.00;99328.52;1704903;82;21104;-51
2022/09/21 11:55:06;;;;;;;0.35;0.30;;;;;;;12.11;100.00;99324.77;1702047;82;22610;-49
2022/09/21 11:58:01;;;;;;;0.40;0.20;;;;;;;12.18;100.00;99319.86;1707002;82;21426;-51
2022/09/21 12:00:32;;;;;;;0.20;0.20;;;;;;;12.27;100.00;99324.69;1703671;82;21519;-51
2022/09/21 12:03:22;;;;;;;0.30;0.25;;;;;;;12.34;100.00;99317.94;1705737;82;21661;-50